sensor_id;sensor_type;location;lat;lon;timestamp;pressure;altitude;pressure_sealevel;temperature;humidity
26043;BME280;13818;52.156;5.382;2023-03-01T00:02:13;102920.84;;;0.91;100.00
26043;BME280;13818;52.156;5.382;2023-03-01T00:04:40;102911.06;;;0.86;100.00
26043;BME280;13818;52.156;5.382;2023-03-01T00:07:07;102923.25;;;0.82;100.00
26043;BME280;13818;52.156;5.382;2023-03-01T00:09:35;102916.91;;;0.75;100.00
26043;BME280;13818;52.156;5.382;2023-03-01T00:12:03;102925.50;;;0.70;100.00
26043;BME280;13818;52.156;5.382;2023-03-01T00:14:29;102918.44;;;0.67;100.00
26043;BME280;13818;52.156;5.382;2023-03-01T00:16:55;102915.06;;;0.71;100.00
26043;BME280;13818;52.156;5.382;2023-03-01T00:19:22;102920.28;;;0.71;100.00
26043;BME280;13818;52.156;5.382;2023-03-01T00:21:49;102914.22;;;0.72;100.00
26043;BME280;13818;52.156;5.382;2023-03-01T00:24:17;102922.16;;;0.75;100.00
26043;BME280;13818;52.156;5.382;2023-03-01T00:26:43;102922.88;;;0.70;100.00
26043;BME280;13818;52.156;5.382;2023-03-01T00:29:10;102909.84;;;0.73;100.00
26043;BME280;13818;52.156;5.382;2023-03-01T00:31:36;102914.19;;;0.71;100.00
26043;BME280;13818;52.156;5.382;2023-03-01T00:34:04;102913.13;;;0.65;100.00
26043;BME280;13818;52.156;5.382;2023-03-01T00:36:33;102905.38;;;0.70;100.00
26043;BME280;13818;52.156;5.382;2023-03-01T00:39:01;102903.53;;;0.66;100.00
26043;BME280;13818;52.156;5.382;2023-03-01T00:41:31;102898.94;;;0.59;100.00
26043;BME280;13818;52.156;5.382;2023-03-01T00:43:59;102911.09;;;0.55;100.00
26043;BME280;13818;52.156;5.382;2023-03-01T00:46:27;102904.13;;;0.56;100.00
26043;BME280;13818;52.156;5.382;2023-03-01T00:48:55;102910.19;;;0.53;100.00
26043;BME280;13818;52.156;5.382;2023-03-01T00:51:25;102908.06;;;0.41;100.00
26043;BME280;13818;52.156;5.382;2023-03-01T00:53:52;102898.38;;;0.39;100.00
26043;BME280;13818;52.156;5.382;2023-03-01T00:56:19;102896.84;;;0.45;100.00
26043;BME280;13818;52.156;5.382;2023-03-01T00:58:47;102905.81;;;0.54;100.00
26043;BME280;13818;52.156;5.382;2023-03-01T01:01:16;102899.94;;;0.62;100.00
26043;BME280;13818;52.156;5.382;2023-03-01T01:03:47;102888.44;;;0.59;100.00
26043;BME280;13818;52.156;5.382;2023-03-01T01:06:16;102891.34;;;0.68;100.00
26043;BME280;13818;52.156;5.382;2023-03-01T01:08:43;102893.97;;;0.68;100.00
26043;BME280;13818;52.156;5.382;2023-03-01T01:11:10;102892.41;;;0.75;100.00
26043;BME280;13818;52.156;5.382;2023-03-01T01:13:36;102877.56;;;0.77;100.00
26043;BME280;13818;52.156;5.382;2023-03-01T01:16:05;102887.47;;;0.55;100.00
26043;BME280;13818;52.156;5.382;2023-03-01T01:18:32;102870.03;;;0.57;100.00
26043;BME280;13818;52.156;5.382;2023-03-01T01:21:03;102877.97;;;0.60;100.00
26043;BME280;13818;52.156;5.382;2023-03-01T01:23:30;102875.34;;;0.60;100.00
26043;BME280;13818;52.156;5.382;2023-03-01T01:25:57;102876.34;;;0.64;100.00
26043;BME280;13818;52.156;5.382;2023-03-01T01:28:23;102869.16;;;0.57;100.00
26043;BME280;13818;52.156;5.382;2023-03-01T01:30:50;102867.22;;;0.50;100.00
26043;BME280;13818;52.156;5.382;2023-03-01T01:33:18;102870.81;;;0.53;100.00
26043;BME280;13818;52.156;5.382;2023-03-01T01:35:45;102855.00;;;0.52;100.00
26043;BME280;13818;52.156;5.382;2023-03-01T01:38:11;102862.63;;;0.42;100.00
26043;BME280;13818;52.156;5.382;2023-03-01T01:40:43;102858.03;;;0.35;100.00
26043;BME280;13818;52.156;5.382;2023-03-01T01:43:15;102864.09;;;0.32;100.00
26043;BME280;13818;52.156;5.382;2023-03-01T01:45:43;102857.84;;;0.29;100.00
26043;BME280;13818;52.156;5.382;2023-03-01T01:48:13;102864.88;;;0.30;100.00
26043;BME280;13818;52.156;5.382;2023-03-01T01:50:44;102857.78;;;0.26;100.00
26043;BME280;13818;52.156;5.382;2023-03-01T01:53:16;102847.06;;;0.18;100.00
26043;BME280;13818;52.156;5.382;2023-03-01T01:55:45;102851.47;;;0.19;100.00
26043;BME280;13818;52.156;5.382;2023-03-01T01:58:15;102850.47;;;0.14;100.00
26043;BME280;13818;52.156;5.382;2023-03-01T02:00:44;102848.63;;;0.11;100.00
26043;BME280;13818;52.156;5.382;2023-03-01T02:03:12;102850.38;;;0.12;100.00
26043;BME280;13818;52.156;5.382;2023-03-01T02:05:44;102849.53;;;0.13;100.00
26043;BME280;13818;52.156;5.382;2023-03-01T02:08:14;102839.91;;;0.12;100.00
26043;BME280;13818;52.156;5.382;2023-03-01T02:10:43;102847.75;;;0.12;100.00
26043;BME280;13818;52.156;5.382;2023-03-01T02:13:12;102845.06;;;0.09;100.00
26043;BME280;13818;52.156;5.382;2023-03-01T02:15:40;102842.28;;;0.05;100.00
26043;BME280;13818;52.156;5.382;2023-03-01T02:18:10;102840.41;;;-0.01;100.00
26043;BME280;13818;52.156;5.382;2023-03-01T02:20:43;102841.88;;;-0.09;100.00
26043;BME280;13818;52.156;5.382;2023-03-01T02:23:13;102839.38;;;-0.06;100.00
26043;BME280;13818;52.156;5.382;2023-03-01T02:25:47;102840.31;;;-0.03;100.00
26043;BME280;13818;52.156;5.382;2023-03-01T02:28:35;102840.06;;;-0.12;100.00
26043;BME280;13818;52.156;5.382;2023-03-01T02:31:03;102838.44;;;-0.08;100.00
26043;BME280;13818;52.156;5.382;2023-03-01T02:33:48;102827.06;;;-0.09;100.00
26043;BME280;13818;52.156;5.382;2023-03-01T02:36:18;102824.47;;;-0.07;100.00
26043;BME280;13818;52.156;5.382;2023-03-01T02:38:46;102830.75;;;-0.02;100.00
26043;BME280;13818;52.156;5.382;2023-03-01T02:41:16;102821.56;;;-0.17;100.00
26043;BME280;13818;52.156;5.382;2023-03-01T02:43:45;102812.75;;;-0.20;100.00
26043;BME280;13818;52.156;5.382;2023-03-01T02:46:15;102821.56;;;-0.17;100.00
26043;BME280;13818;52.156;5.382;2023-03-01T02:48:44;102818.81;;;-0.21;100.00
26043;BME280;13818;52.156;5.382;2023-03-01T02:51:22;102815.97;;;-0.29;100.00
26043;BME280;13818;52.156;5.382;2023-03-01T02:53:59;102809.59;;;-0.37;100.00
26043;BME280;13818;52.156;5.382;2023-03-01T02:56:29;102813.19;;;-0.34;100.00
26043;BME280;13818;52.156;5.382;2023-03-01T02:58:57;102802.88;;;-0.29;100.00
26043;BME280;13818;52.156;5.382;2023-03-01T03:01:26;102806.38;;;-0.28;100.00
26043;BME280;13818;52.156;5.382;2023-03-01T03:04:02;102809.13;;;-0.24;100.00
26043;BME280;13818;52.156;5.382;2023-03-01T03:06:28;102817.03;;;-0.22;100.00
26043;BME280;13818;52.156;5.382;2023-03-01T03:08:55;102803.16;;;-0.18;100.00
26043;BME280;13818;52.156;5.382;2023-03-01T03:11:21;102802.97;;;-0.24;100.00
26043;BME280;13818;52.156;5.382;2023-03-01T03:13:48;102801.19;;;-0.25;100.00
26043;BME280;13818;52.156;5.382;2023-03-01T03:16:16;102802.00;;;-0.28;100.00
26043;BME280;13818;52.156;5.382;2023-03-01T03:18:43;102801.13;;;-0.28;100.00
26043;BME280;13818;52.156;5.382;2023-03-01T03:21:11;102806.09;;;-0.38;100.00
26043;BME280;13818;52.156;5.382;2023-03-01T03:23:38;102790.56;;;-0.31;100.00
26043;BME280;13818;52.156;5.382;2023-03-01T03:26:05;102786.09;;;-0.34;100.00
26043;BME280;13818;52.156;5.382;2023-03-01T03:28:32;102790.56;;;-0.31;100.00
26043;BME280;13818;52.156;5.382;2023-03-01T03:30:59;102775.72;;;-0.31;100.00
26043;BME280;13818;52.156;5.382;2023-03-01T03:33:30;102780.84;;;-0.34;100.00
26043;BME280;13818;52.156;5.382;2023-03-01T03:35:56;102796.56;;;-0.34;100.00
26043;BME280;13818;52.156;5.382;2023-03-01T03:38:23;102782.44;;;-0.39;100.00
26043;BME280;13818;52.156;5.382;2023-03-01T03:40:51;102787.00;;;-0.34;100.00
26043;BME280;13818;52.156;5.382;2023-03-01T03:43:20;102784.72;;;-0.52;100.00
26043;BME280;13818;52.156;5.382;2023-03-01T03:45:48;102794.47;;;-0.46;100.00
26043;BME280;13818;52.156;5.382;2023-03-01T03:48:16;102789.69;;;-0.30;100.00
26043;BME280;13818;52.156;5.382;2023-03-01T03:50:48;102787.88;;;-0.33;100.00
26043;BME280;13818;52.156;5.382;2023-03-01T03:53:15;102783.81;;;-0.23;100.00
26043;BME280;13818;52.156;5.382;2023-03-01T03:55:42;102777.75;;;-0.21;100.00
26043;BME280;13818;52.156;5.382;2023-03-01T03:58:10;102778.81;;;-0.14;100.00
26043;BME280;13818;52.156;5.382;2023-03-01T04:00:38;102781.88;;;0.00;100.00
26043;BME280;13818;52.156;5.382;2023-03-01T04:03:06;102779.41;;;0.06;100.00
26043;BME280;13818;52.156;5.382;2023-03-01T04:05:32;102780.66;;;0.19;100.00
26043;BME280;13818;52.156;5.382;2023-03-01T04:08:00;102786.94;;;0.26;100.00
26043;BME280;13818;52.156;5.382;2023-03-01T04:10:28;102782.13;;;0.41;100.00
26043;BME280;13818;52.156;5.382;2023-03-01T04:12:55;102783.34;;;0.22;100.00
26043;BME280;13818;52.156;5.382;2023-03-01T04:15:23;102782.34;;;0.17;100.00
26043;BME280;13818;52.156;5.382;2023-03-01T04:17:51;102779.72;;;0.17;100.00
26043;BME280;13818;52.156;5.382;2023-03-01T04:20:20;102782.66;;;0.28;100.00
26043;BME280;13818;52.156;5.382;2023-03-01T04:22:51;102787.41;;;0.43;100.00
26043;BME280;13818;52.156;5.382;2023-03-01T04:25:19;102786.53;;;0.42;100.00
26043;BME280;13818;52.156;5.382;2023-03-01T04:27:45;102782.88;;;0.37;100.00
26043;BME280;13818;52.156;5.382;2023-03-01T04:30:12;102787.41;;;0.43;100.00
26043;BME280;13818;52.156;5.382;2023-03-01T04:32:39;102793.63;;;0.46;100.00
26043;BME280;13818;52.156;5.382;2023-03-01T04:35:06;102789.00;;;0.38;100.00
26043;BME280;13818;52.156;5.382;2023-03-01T04:37:33;102784.56;;;0.35;100.00
26043;BME280;13818;52.156;5.382;2023-03-01T04:40:00;102786.28;;;0.33;100.00
26043;BME280;13818;52.156;5.382;2023-03-01T04:42:27;102783.84;;;0.39;100.00
26043;BME280;13818;52.156;5.382;2023-03-01T04:44:54;102786.53;;;0.42;100.00
26043;BME280;13818;52.156;5.382;2023-03-01T04:47:20;102784.91;;;0.47;100.00
26043;BME280;13818;52.156;5.382;2023-03-01T04:49:47;102782.28;;;0.47;100.00
26043;BME280;13818;52.156;5.382;2023-03-01T04:52:13;102781.41;;;0.47;100.00
26043;BME280;13818;52.156;5.382;2023-03-01T04:54:40;102780.81;;;0.57;100.00
26043;BME280;13818;52.156;5.382;2023-03-01T04:57:06;102770.34;;;0.59;100.00
26043;BME280;13818;52.156;5.382;2023-03-01T04:59:34;102758.88;;;0.55;100.00
26043;BME280;13818;52.156;5.382;2023-03-01T05:02:01;102748.22;;;0.49;100.00
26043;BME280;13818;52.156;5.382;2023-03-01T05:04:30;102751.63;;;0.46;100.00
26043;BME280;13818;52.156;5.382;2023-03-01T05:06:56;102735.91;;;0.46;100.00
26043;BME280;13818;52.156;5.382;2023-03-01T05:09:23;102741.47;;;0.59;100.00
26043;BME280;13818;52.156;5.382;2023-03-01T05:11:50;102747.53;;;0.56;100.00
26043;BME280;13818;52.156;5.382;2023-03-01T05:14:17;102731.66;;;0.52;100.00
26043;BME280;13818;52.156;5.382;2023-03-01T05:16:45;102737.84;;;0.54;100.00
26043;BME280;13818;52.156;5.382;2023-03-01T05:19:11;102730.81;;;0.53;100.00
26043;BME280;13818;52.156;5.382;2023-03-01T05:21:40;102733.09;;;0.40;100.00
26043;BME280;13818;52.156;5.382;2023-03-01T05:24:21;102730.09;;;0.25;100.00
26043;BME280;13818;52.156;5.382;2023-03-01T05:26:48;102718.88;;;-0.02;100.00
26043;BME280;13818;52.156;5.382;2023-03-01T05:29:17;102723.63;;;-0.20;100.00
26043;BME280;13818;52.156;5.382;2023-03-01T05:31:45;102723.44;;;-0.26;100.00
26043;BME280;13818;52.156;5.382;2023-03-01T05:34:12;102719.81;;;-0.31;100.00
26043;BME280;13818;52.156;5.382;2023-03-01T05:36:38;102712.63;;;-0.37;100.00
26043;BME280;13818;52.156;5.382;2023-03-01T05:39:05;102712.38;;;-0.46;100.00
26043;BME280;13818;52.156;5.382;2023-03-01T05:41:31;102701.81;;;-0.48;100.00
26043;BME280;13818;52.156;5.382;2023-03-01T05:43:58;102700.75;;;-0.55;100.00
26043;BME280;13818;52.156;5.382;2023-03-01T05:46:24;102691.09;;;-0.57;100.00
26043;BME280;13818;52.156;5.382;2023-03-01T05:48:52;102699.06;;;-0.54;100.00
26043;BME280;13818;52.156;5.382;2023-03-01T05:51:18;102703.56;;;-0.48;100.00
26043;BME280;13818;52.156;5.382;2023-03-01T05:53:45;102695.56;;;-0.53;100.00
26043;BME280;13818;52.156;5.382;2023-03-01T05:56:11;102704.44;;;-0.48;100.00
26043;BME280;13818;52.156;5.382;2023-03-01T05:58:37;102692.91;;;-0.55;100.00
26043;BME280;13818;52.156;5.382;2023-03-01T06:01:04;102693.31;;;-0.41;100.00
26043;BME280;13818;52.156;5.382;2023-03-01T06:03:31;102693.75;;;-0.56;100.00
26043;BME280;13818;52.156;5.382;2023-03-01T06:05:59;102692.34;;;-0.73;100.00
26043;BME280;13818;52.156;5.382;2023-03-01T06:08:25;102698.16;;;-0.84;100.00
26043;BME280;13818;52.156;5.382;2023-03-01T06:10:52;102690.28;;;-0.84;100.00
26043;BME280;13818;52.156;5.382;2023-03-01T06:13:19;102687.78;;;-0.80;100.00
26043;BME280;13818;52.156;5.382;2023-03-01T06:15:45;102689.00;;;-0.69;100.00
26043;BME280;13818;52.156;5.382;2023-03-01T06:18:12;102688.28;;;-0.63;100.00
26043;BME280;13818;52.156;5.382;2023-03-01T06:20:39;102698.09;;;-0.56;100.00
26043;BME280;13818;52.156;5.382;2023-03-01T06:23:08;102695.06;;;-0.41;100.00
26043;BME280;13818;52.156;5.382;2023-03-01T06:25:35;102700.25;;;-0.43;100.00
26043;BME280;13818;52.156;5.382;2023-03-01T06:28:01;102697.66;;;-0.41;100.00
26043;BME280;13818;52.156;5.382;2023-03-01T06:30:29;102698.09;;;-0.26;100.00
26043;BME280;13818;52.156;5.382;2023-03-01T06:32:56;102702.53;;;-0.23;100.00
26043;BME280;13818;52.156;5.382;2023-03-01T06:35:25;102695.53;;;-0.24;100.00
26043;BME280;13818;52.156;5.382;2023-03-01T06:37:56;102698.97;;;-0.25;100.00
26043;BME280;13818;52.156;5.382;2023-03-01T06:40:24;102704.47;;;-0.18;100.00
26043;BME280;13818;52.156;5.382;2023-03-01T06:42:51;102696.81;;;-0.10;100.00
26043;BME280;13818;52.156;5.382;2023-03-01T06:45:19;102702.41;;;0.03;100.00
26043;BME280;13818;52.156;5.382;2023-03-01T06:47:46;102699.91;;;0.09;100.00
26043;BME280;13818;52.156;5.382;2023-03-01T06:50:14;102697.69;;;0.23;100.00
26043;BME280;13818;52.156;5.382;2023-03-01T06:52:42;102703.75;;;0.55;100.00
26043;BME280;13818;52.156;5.382;2023-03-01T06:55:11;102706.41;;;0.92;100.00
26043;BME280;13818;52.156;5.382;2023-03-01T06:57:39;102708.13;;;1.29;100.00
26043;BME280;13818;52.156;5.382;2023-03-01T07:00:07;102706.09;;;1.57;100.00
26043;BME280;13818;52.156;5.382;2023-03-01T07:02:34;102704.50;;;1.64;100.00
26043;BME280;13818;52.156;5.382;2023-03-01T07:05:01;102697.75;;;1.77;100.00
26043;BME280;13818;52.156;5.382;2023-03-01T07:07:27;102698.84;;;1.87;100.00
26043;BME280;13818;52.156;5.382;2023-03-01T07:09:54;102696.41;;;1.98;100.00
26043;BME280;13818;52.156;5.382;2023-03-01T07:12:21;102698.91;;;1.91;100.00
26043;BME280;13818;52.156;5.382;2023-03-01T07:14:48;102698.84;;;1.87;100.00
26043;BME280;13818;52.156;5.382;2023-03-01T07:17:15;102691.66;;;1.79;100.00
26043;BME280;13818;52.156;5.382;2023-03-01T07:19:42;102703.88;;;1.77;100.00
26043;BME280;13818;52.156;5.382;2023-03-01T07:22:10;102703.28;;;1.89;100.00
26043;BME280;13818;52.156;5.382;2023-03-01T07:24:36;102696.84;;;1.76;100.00
26043;BME280;13818;52.156;5.382;2023-03-01T07:27:04;102700.38;;;1.77;100.00
26043;BME280;13818;52.156;5.382;2023-03-01T07:29:30;102709.03;;;1.71;100.00
26043;BME280;13818;52.156;5.382;2023-03-01T07:31:58;102708.31;;;1.80;100.00
26043;BME280;13818;52.156;5.382;2023-03-01T07:34:25;102716.16;;;1.77;100.00
26043;BME280;13818;52.156;5.382;2023-03-01T07:36:51;102717.00;;;1.76;100.00
26043;BME280;13818;52.156;5.382;2023-03-01T07:39:18;102706.53;;;1.79;100.00
26043;BME280;13818;52.156;5.382;2023-03-01T07:41:44;102715.31;;;1.78;100.00
26043;BME280;13818;52.156;5.382;2023-03-01T07:44:10;102717.84;;;1.73;100.00
26043;BME280;13818;52.156;5.382;2023-03-01T07:46:37;102719.50;;;1.68;100.00
26043;BME280;13818;52.156;5.382;2023-03-01T07:49:05;102717.88;;;1.76;100.00
26043;BME280;13818;52.156;5.382;2023-03-01T07:51:31;102718.09;;;1.86;100.00
26043;BME280;13818;52.156;5.382;2023-03-01T07:53:59;102717.28;;;1.90;100.00
26043;BME280;13818;52.156;5.382;2023-03-01T07:56:25;102715.75;;;2.00;100.00
26043;BME280;13818;52.156;5.382;2023-03-01T07:58:52;102715.03;;;2.08;100.00
26043;BME280;13818;52.156;5.382;2023-03-01T08:01:20;102723.78;;;2.07;100.00
26043;BME280;13818;52.156;5.382;2023-03-01T08:03:47;102719.97;;;2.39;100.00
26043;BME280;13818;52.156;5.382;2023-03-01T08:06:16;102718.41;;;2.50;100.00
26043;BME280;13818;52.156;5.382;2023-03-01T08:08:43;102723.09;;;2.68;100.00
26043;BME280;13818;52.156;5.382;2023-03-01T08:11:11;102726.88;;;2.83;100.00
26043;BME280;13818;52.156;5.382;2023-03-01T08:13:38;102728.06;;;3.03;100.00
26043;BME280;13818;52.156;5.382;2023-03-01T08:16:07;102721.97;;;3.07;100.00
26043;BME280;13818;52.156;5.382;2023-03-01T08:18:36;102713.50;;;3.30;100.00
26043;BME280;13818;52.156;5.382;2023-03-01T08:21:04;102712.84;;;3.45;100.00
26043;BME280;13818;52.156;5.382;2023-03-01T08:23:32;102714.81;;;3.62;100.00
26043;BME280;13818;52.156;5.382;2023-03-01T08:26:06;102715.97;;;3.82;100.00
26043;BME280;13818;52.156;5.382;2023-03-01T08:28:33;102710.94;;;4.04;100.00
26043;BME280;13818;52.156;5.382;2023-03-01T08:31:01;102712.06;;;4.29;100.00
26043;BME280;13818;52.156;5.382;2023-03-01T08:33:27;102718.47;;;4.51;100.00
26043;BME280;13818;52.156;5.382;2023-03-01T08:36:02;102721.59;;;5.16;100.00
26043;BME280;13818;52.156;5.382;2023-03-01T08:38:29;102718.25;;;5.45;100.00
26043;BME280;13818;52.156;5.382;2023-03-01T08:40:59;102709.59;;;5.80;100.00
26043;BME280;13818;52.156;5.382;2023-03-01T08:43:26;102702.50;;;5.70;100.00
26043;BME280;13818;52.156;5.382;2023-03-01T08:45:52;102705.31;;;6.29;100.00
26043;BME280;13818;52.156;5.382;2023-03-01T08:48:19;102709.78;;;6.76;100.00
26043;BME280;13818;52.156;5.382;2023-03-01T08:50:45;102707.13;;;6.84;99.70
26043;BME280;13818;52.156;5.382;2023-03-01T08:53:12;102694.66;;;5.98;95.67
26043;BME280;13818;52.156;5.382;2023-03-01T08:55:38;102703.59;;;6.71;90.19
26043;BME280;13818;52.156;5.382;2023-03-01T08:58:06;102699.16;;;6.95;85.95
26043;BME280;13818;52.156;5.382;2023-03-01T09:00:33;102699.09;;;7.35;80.85
26043;BME280;13818;52.156;5.382;2023-03-01T09:03:00;102703.47;;;7.42;77.98
26043;BME280;13818;52.156;5.382;2023-03-01T09:05:27;102694.75;;;6.71;77.75
26043;BME280;13818;52.156;5.382;2023-03-01T09:07:53;102688.41;;;7.51;76.94
26043;BME280;13818;52.156;5.382;2023-03-01T09:10:20;102684.84;;;7.58;74.18
26043;BME280;13818;52.156;5.382;2023-03-01T09:12:46;102679.56;;;7.52;72.86
26043;BME280;13818;52.156;5.382;2023-03-01T09:15:14;102686.53;;;7.73;72.35
26043;BME280;13818;52.156;5.382;2023-03-01T09:17:40;102676.59;;;8.12;70.54
26043;BME280;13818;52.156;5.382;2023-03-01T09:20:08;102666.16;;;7.76;68.79
26043;BME280;13818;52.156;5.382;2023-03-01T09:22:35;102673.84;;;8.26;68.45
26043;BME280;13818;52.156;5.382;2023-03-01T09:25:02;102674.81;;;8.12;68.19
26043;BME280;13818;52.156;5.382;2023-03-01T09:27:28;102673.13;;;7.97;68.08
26043;BME280;13818;52.156;5.382;2023-03-01T09:29:55;102661.91;;;7.41;68.44
26043;BME280;13818;52.156;5.382;2023-03-01T09:32:23;102649.63;;;5.84;71.88
26043;BME280;13818;52.156;5.382;2023-03-01T09:34:50;102651.25;;;5.48;74.10
26043;BME280;13818;52.156;5.382;2023-03-01T09:37:30;102662.66;;;5.36;77.54
26043;BME280;13818;52.156;5.382;2023-03-01T09:39:57;102663.53;;;5.36;82.20
26043;BME280;13818;52.156;5.382;2023-03-01T09:42:24;102656.63;;;5.69;83.14
26043;BME280;13818;52.156;5.382;2023-03-01T09:44:52;102652.31;;;5.99;83.79
26043;BME280;13818;52.156;5.382;2023-03-01T09:47:26;102647.94;;;6.65;78.73
26043;BME280;13818;52.156;5.382;2023-03-01T09:50:00;102654.13;;;6.62;76.54
26043;BME280;13818;52.156;5.382;2023-03-01T09:52:34;102645.31;;;6.42;77.03
26043;BME280;13818;52.156;5.382;2023-03-01T09:55:10;102639.09;;;6.37;78.79
26043;BME280;13818;52.156;5.382;2023-03-01T09:57:43;102645.25;;;6.00;80.53
26043;BME280;13818;52.156;5.382;2023-03-01T10:00:32;102647.03;;;5.99;81.67
26043;BME280;13818;52.156;5.382;2023-03-01T10:03:12;102643.41;;;5.76;79.88
26043;BME280;13818;52.156;5.382;2023-03-01T10:05:46;102636.34;;;5.81;80.04
26043;BME280;13818;52.156;5.382;2023-03-01T10:08:36;102656.50;;;5.38;82.16
26043;BME280;13818;52.156;5.382;2023-03-01T10:11:19;102662.78;;;5.67;80.69
26043;BME280;13818;52.156;5.382;2023-03-01T10:13:46;102661.81;;;5.48;78.37
26043;BME280;13818;52.156;5.382;2023-03-01T10:16:21;102649.50;;;5.53;77.14
26043;BME280;13818;52.156;5.382;2023-03-01T10:18:53;102639.84;;;5.72;77.77
26043;BME280;13818;52.156;5.382;2023-03-01T10:21:22;102638.13;;;5.74;75.43
26043;BME280;13818;52.156;5.382;2023-03-01T10:23:50;102627.47;;;5.63;74.53
26043;BME280;13818;52.156;5.382;2023-03-01T10:26:28;102628.41;;;5.70;74.68
26043;BME280;13818;52.156;5.382;2023-03-01T10:29:02;102641.69;;;5.84;75.40
26043;BME280;13818;52.156;5.382;2023-03-01T10:31:38;102637.19;;;5.66;74.70
26043;BME280;13818;52.156;5.382;2023-03-01T10:34:10;102631.91;;;5.70;74.69
26043;BME280;13818;52.156;5.382;2023-03-01T10:36:38;102642.41;;;5.44;73.59
26043;BME280;13818;52.156;5.382;2023-03-01T10:39:13;102630.16;;;5.68;73.94
26043;BME280;13818;52.156;5.382;2023-03-01T10:41:53;102635.41;;;5.57;74.17
26043;BME280;13818;52.156;5.382;2023-03-01T10:44:36;102627.47;;;5.51;72.78
26043;BME280;13818;52.156;5.382;2023-03-01T10:47:03;102611.63;;;5.65;74.08
26043;BME280;13818;52.156;5.382;2023-03-01T10:49:31;102610.78;;;5.77;74.25
26043;BME280;13818;52.156;5.382;2023-03-01T10:52:11;102604.59;;;5.89;74.68
26043;BME280;13818;52.156;5.382;2023-03-01T10:54:52;102594.91;;;5.75;72.28
26043;BME280;13818;52.156;5.382;2023-03-01T10:57:28;102603.72;;;5.83;70.29
26043;BME280;13818;52.156;5.382;2023-03-01T11:00:02;102598.44;;;5.86;69.12
26043;BME280;13818;52.156;5.382;2023-03-01T11:02:30;102594.91;;;5.83;67.48
26043;BME280;13818;52.156;5.382;2023-03-01T11:05:02;102596.66;;;5.79;66.54
26043;BME280;13818;52.156;5.382;2023-03-01T11:07:47;102589.59;;;5.75;65.00
26043;BME280;13818;52.156;5.382;2023-03-01T11:10:17;102580.75;;;5.64;64.34
26043;BME280;13818;52.156;5.382;2023-03-01T11:12:44;102571.94;;;5.76;63.71
26043;BME280;13818;52.156;5.382;2023-03-01T11:15:20;102555.22;;;5.95;63.39
26043;BME280;13818;52.156;5.382;2023-03-01T11:17:47;102570.25;;;6.09;62.37
26043;BME280;13818;52.156;5.382;2023-03-01T11:20:23;102569.38;;;6.07;62.48
26043;BME280;13818;52.156;5.382;2023-03-01T11:22:52;102566.72;;;6.17;62.59
26043;BME280;13818;52.156;5.382;2023-03-01T11:25:24;102560.53;;;6.34;62.85
26043;BME280;13818;52.156;5.382;2023-03-01T11:27:51;102556.13;;;6.24;62.49
26043;BME280;13818;52.156;5.382;2023-03-01T11:30:22;102563.19;;;6.45;63.09
26043;BME280;13818;52.156;5.382;2023-03-01T11:32:56;102549.94;;;6.34;63.20
26043;BME280;13818;52.156;5.382;2023-03-01T11:35:29;102558.75;;;6.56;63.80
26043;BME280;13818;52.156;5.382;2023-03-01T11:38:04;102554.38;;;6.26;63.27
26043;BME280;13818;52.156;5.382;2023-03-01T11:40:39;102563.19;;;6.42;64.05
26043;BME280;13818;52.156;5.382;2023-03-01T11:43:15;102555.22;;;6.28;63.11
26043;BME280;13818;52.156;5.382;2023-03-01T11:45:51;102545.53;;;6.36;62.21
26043;BME280;13818;52.156;5.382;2023-03-01T11:48:46;102549.03;;;6.49;60.81
26043;BME280;13818;52.156;5.382;2023-03-01T11:51:23;102542.00;;;6.32;61.22
26043;BME280;13818;52.156;5.382;2023-03-01T11:54:01;102547.31;;;6.31;61.33
26043;BME280;13818;52.156;5.382;2023-03-01T11:56:34;102556.09;;;6.61;61.03
26043;BME280;13818;52.156;5.382;2023-03-01T12:05:13;102536.66;;;6.59;59.66
26043;BME280;13818;52.156;5.382;2023-03-01T12:07:53;102542.84;;;6.67;58.24
26043;BME280;13818;52.156;5.382;2023-03-01T12:10:23;102538.38;;;6.69;58.66
26043;BME280;13818;52.156;5.382;2023-03-01T12:13:11;102538.44;;;6.64;59.35
26043;BME280;13818;52.156;5.382;2023-03-01T12:15:51;102539.28;;;6.70;59.17
26043;BME280;13818;52.156;5.382;2023-03-01T12:18:31;102541.06;;;6.64;58.77
26043;BME280;13818;52.156;5.382;2023-03-01T12:21:14;102561.38;;;6.51;59.25
26043;BME280;13818;52.156;5.382;2023-03-01T12:23:59;102543.75;;;6.43;59.23
26043;BME280;13818;52.156;5.382;2023-03-01T12:26:32;102540.25;;;6.27;59.13
26043;BME280;13818;52.156;5.382;2023-03-01T12:29:10;102534.03;;;6.39;60.22
26043;BME280;13818;52.156;5.382;2023-03-01T12:32:04;102535.78;;;6.50;60.18
26043;BME280;13818;52.156;5.382;2023-03-01T12:34:42;102528.69;;;6.60;59.83
26043;BME280;13818;52.156;5.382;2023-03-01T12:37:22;102529.63;;;6.39;59.17
26043;BME280;13818;52.156;5.382;2023-03-01T12:40:10;102517.19;;;6.75;59.13
26043;BME280;13818;52.156;5.382;2023-03-01T12:42:48;102508.34;;;6.78;59.73
26043;BME280;13818;52.156;5.382;2023-03-01T12:45:44;102526.03;;;6.65;58.81
26043;BME280;13818;52.156;5.382;2023-03-01T12:48:26;102514.63;;;6.41;58.21
26043;BME280;13818;52.156;5.382;2023-03-01T12:51:00;102496.88;;;6.66;58.59
26043;BME280;13818;52.156;5.382;2023-03-01T12:53:30;102517.22;;;6.57;58.99
26043;BME280;13818;52.156;5.382;2023-03-01T12:56:02;102491.63;;;6.48;59.64
26043;BME280;13818;52.156;5.382;2023-03-01T12:58:32;102488.09;;;6.64;60.14
26043;BME280;13818;52.156;5.382;2023-03-01T13:01:14;102495.06;;;6.78;58.96
26043;BME280;13818;52.156;5.382;2023-03-01T13:06:49;102485.38;;;6.80;57.59
26043;BME280;13818;52.156;5.382;2023-03-01T13:09:25;102487.13;;;6.81;58.14
26043;BME280;13818;52.156;5.382;2023-03-01T13:11:54;102469.47;;;6.80;58.38
26043;BME280;13818;52.156;5.382;2023-03-01T13:14:44;102473.78;;;7.01;57.44